sensor_id;sensor_type;location;lat;lon;timestamp;pressure;altitude;pressure_sealevel;temperature;humidity
44198;BME280;30157;55.512;37.764;2023-03-01T00:01:48;99213.75;;;-6.22;60.92
44198;BME280;30157;55.512;37.764;2023-03-01T00:04:14;99161.03;;;-6.49;60.93
44198;BME280;30157;55.512;37.764;2023-03-01T00:06:39;99194.75;;;-6.32;60.90
44198;BME280;30157;55.512;37.764;2023-03-01T00:09:05;99194.81;;;-6.30;60.84
44198;BME280;30157;55.512;37.764;2023-03-01T00:11:32;99198.94;;;-6.32;60.57
44198;BME280;30157;55.512;37.764;2023-03-01T00:14:00;99191.28;;;-6.34;60.68
44198;BME280;30157;55.512;37.764;2023-03-01T00:16:36;99201.13;;;-6.38;60.40
44198;BME280;30157;55.512;37.764;2023-03-01T00:19:04;99181.13;;;-6.50;61.15
44198;BME280;30157;55.512;37.764;2023-03-01T00:21:29;99149.78;;;-6.70;61.22
44198;BME280;30157;55.512;37.764;2023-03-01T00:23:55;99200.19;;;-6.40;60.52
44198;BME280;30157;55.512;37.764;2023-03-01T00:26:22;98984.06;;;-7.67;60.88
44198;BME280;30157;55.512;37.764;2023-03-01T00:28:49;99178.22;;;-6.58;60.93
44198;BME280;30157;55.512;37.764;2023-03-01T00:31:17;99052.56;;;-7.28;60.69
44198;BME280;30157;55.512;37.764;2023-03-01T00:33:44;99052.47;;;-7.30;60.55
44198;BME280;30157;55.512;37.764;2023-03-01T00:36:11;99195.59;;;-6.48;60.61
44198;BME280;30157;55.512;37.764;2023-03-01T00:38:39;99179.25;;;-6.54;61.00
44198;BME280;30157;55.512;37.764;2023-03-01T00:41:06;99142.38;;;-6.84;61.11
44198;BME280;30157;55.512;37.764;2023-03-01T00:43:32;99190.94;;;-6.56;61.32
44198;BME280;30157;55.512;37.764;2023-03-01T00:46:09;99189.88;;;-6.60;61.24
44198;BME280;30157;55.512;37.764;2023-03-01T00:48:36;99198.50;;;-6.56;60.96
44198;BME280;30157;55.512;37.764;2023-03-01T00:51:13;99181.13;;;-6.67;60.93
44198;BME280;30157;55.512;37.764;2023-03-01T00:53:40;99185.63;;;-6.61;61.30
44198;BME280;30157;55.512;37.764;2023-03-01T00:56:07;99076.59;;;-7.35;61.39
44198;BME280;30157;55.512;37.764;2023-03-01T00:58:34;99193.59;;;-6.70;61.45
44198;BME280;30157;55.512;37.764;2023-03-01T01:01:06;99185.75;;;-6.75;61.56
44198;BME280;30157;55.512;37.764;2023-03-01T01:03:32;99184.81;;;-6.77;61.97
44198;BME280;30157;55.512;37.764;2023-03-01T01:05:57;99198.13;;;-6.79;62.33
44198;BME280;30157;55.512;37.764;2023-03-01T01:08:23;99086.50;;;-7.53;62.35
44198;BME280;30157;55.512;37.764;2023-03-01T01:10:49;99197.91;;;-6.84;62.53
44198;BME280;30157;55.512;37.764;2023-03-01T01:13:14;99190.69;;;-6.93;62.85
44198;BME280;30157;55.512;37.764;2023-03-01T01:15:40;99062.91;;;-7.70;62.86
44198;BME280;30157;55.512;37.764;2023-03-01T01:18:06;99165.22;;;-7.12;63.15
44198;BME280;30157;55.512;37.764;2023-03-01T01:20:35;99167.66;;;-7.14;63.13
44198;BME280;30157;55.512;37.764;2023-03-01T01:23:01;99194.44;;;-7.01;63.43
44198;BME280;30157;55.512;37.764;2023-03-01T01:25:27;99145.53;;;-7.34;63.18
44198;BME280;30157;55.512;37.764;2023-03-01T01:27:53;99185.59;;;-7.09;63.44
44198;BME280;30157;55.512;37.764;2023-03-01T01:30:19;99177.44;;;-7.20;63.85
44198;BME280;30157;55.512;37.764;2023-03-01T01:32:44;99186.81;;;-7.17;64.10
44198;BME280;30157;55.512;37.764;2023-03-01T01:35:10;99186.72;;;-7.19;64.00
44198;BME280;30157;55.512;37.764;2023-03-01T01:37:35;99185.00;;;-7.20;64.01
44198;BME280;30157;55.512;37.764;2023-03-01T01:40:02;99185.69;;;-7.22;64.12
44198;BME280;30157;55.512;37.764;2023-03-01T01:42:31;99137.72;;;-7.54;63.96
44198;BME280;30157;55.512;37.764;2023-03-01T01:45:27;99174.41;;;-7.29;64.45
44198;BME280;30157;55.512;37.764;2023-03-01T01:47:54;99176.03;;;-7.30;64.39
44198;BME280;30157;55.512;37.764;2023-03-01T01:50:21;99176.03;;;-7.30;64.18
44198;BME280;30157;55.512;37.764;2023-03-01T01:52:48;99180.13;;;-7.32;64.52
44198;BME280;30157;55.512;37.764;2023-03-01T01:55:18;99075.63;;;-7.98;64.69
44198;BME280;30157;55.512;37.764;2023-03-01T01:57:54;99181.88;;;-7.46;64.99
44198;BME280;30157;55.512;37.764;2023-03-01T02:00:23;99179.97;;;-7.35;64.96
44198;BME280;30157;55.512;37.764;2023-03-01T02:02:53;99082.56;;;-7.94;64.63
44198;BME280;30157;55.512;37.764;2023-03-01T02:05:26;99185.09;;;-7.33;64.53
44198;BME280;30157;55.512;37.764;2023-03-01T02:07:54;99181.78;;;-7.32;64.41
44198;BME280;30157;55.512;37.764;2023-03-01T02:10:22;99073.88;;;-7.99;64.65
44198;BME280;30157;55.512;37.764;2023-03-01T02:12:49;99196.81;;;-7.34;64.81
44198;BME280;30157;55.512;37.764;2023-03-01T02:15:36;99192.59;;;-7.35;64.74
44198;BME280;30157;55.512;37.764;2023-03-01T02:18:03;99183.44;;;-7.33;64.75
44198;BME280;30157;55.512;37.764;2023-03-01T02:20:40;99124.34;;;-7.68;65.12
44198;BME280;30157;55.512;37.764;2023-03-01T02:23:08;99169.97;;;-7.33;64.98
44198;BME280;30157;55.512;37.764;2023-03-01T02:30:45;99178.22;;;-7.21;65.17
44198;BME280;30157;55.512;37.764;2023-03-01T02:33:31;99157.44;;;-7.47;65.19
44198;BME280;30157;55.512;37.764;2023-03-01T02:36:04;99177.00;;;-7.28;65.35
44198;BME280;30157;55.512;37.764;2023-03-01T02:38:32;99055.81;;;-8.07;65.23
44198;BME280;30157;55.512;37.764;2023-03-01T02:40:58;99183.72;;;-7.28;65.41
44198;BME280;30157;55.512;37.764;2023-03-01T02:43:29;99192.91;;;-7.29;65.45
44198;BME280;30157;55.512;37.764;2023-03-01T02:46:02;99140.34;;;-7.52;65.37
44198;BME280;30157;55.512;37.764;2023-03-01T02:48:39;99194.66;;;-7.28;65.23
44198;BME280;30157;55.512;37.764;2023-03-01T02:56:36;99150.22;;;-7.70;65.75
44198;BME280;30157;55.512;37.764;2023-03-01T02:59:02;99183.19;;;-7.52;66.03
44198;BME280;30157;55.512;37.764;2023-03-01T03:01:29;99195.72;;;-7.39;66.16
44198;BME280;30157;55.512;37.764;2023-03-01T03:04:10;99126.09;;;-7.82;66.42
44198;BME280;30157;55.512;37.764;2023-03-01T03:06:37;99166.50;;;-7.65;66.62
44198;BME280;30157;55.512;37.764;2023-03-01T03:09:04;99194.50;;;-7.46;66.73
44198;BME280;30157;55.512;37.764;2023-03-01T03:11:30;99159.53;;;-7.69;66.82
44198;BME280;30157;55.512;37.764;2023-03-01T03:13:57;99134.59;;;-7.80;66.77
44198;BME280;30157;55.512;37.764;2023-03-01T03:16:24;99207.88;;;-7.47;66.77
44198;BME280;30157;55.512;37.764;2023-03-01T03:18:50;99201.78;;;-7.50;67.12
44198;BME280;30157;55.512;37.764;2023-03-01T03:21:16;99200.84;;;-7.52;67.29
44198;BME280;30157;55.512;37.764;2023-03-01T03:23:42;99198.03;;;-7.57;67.51
44198;BME280;30157;55.512;37.764;2023-03-01T03:26:08;99209.59;;;-7.61;67.64
44198;BME280;30157;55.512;37.764;2023-03-01T03:28:34;99191.16;;;-7.74;67.82
44198;BME280;30157;55.512;37.764;2023-03-01T03:31:01;99203.59;;;-7.63;67.77
44198;BME280;30157;55.512;37.764;2023-03-01T03:33:29;99185.34;;;-7.73;68.06
44198;BME280;30157;55.512;37.764;2023-03-01T03:35:55;99200.72;;;-7.69;67.99
44198;BME280;30157;55.512;37.764;2023-03-01T03:38:21;99111.88;;;-8.24;68.13
44198;BME280;30157;55.512;37.764;2023-03-01T03:40:59;99097.59;;;-8.39;68.35
44198;BME280;30157;55.512;37.764;2023-03-01T03:43:29;99211.06;;;-7.79;68.38
44198;BME280;30157;55.512;37.764;2023-03-01T03:45:55;99175.16;;;-8.05;68.73
44198;BME280;30157;55.512;37.764;2023-03-01T03:48:23;99225.03;;;-7.84;68.73
44198;BME280;30157;55.512;37.764;2023-03-01T03:50:51;99166.84;;;-8.17;68.69
44198;BME280;30157;55.512;37.764;2023-03-01T03:53:18;98998.03;;;-9.22;68.89
44198;BME280;30157;55.512;37.764;2023-03-01T03:55:44;99221.97;;;-7.94;69.02
44198;BME280;30157;55.512;37.764;2023-03-01T03:58:10;99202.06;;;-8.04;69.16
44198;BME280;30157;55.512;37.764;2023-03-01T04:00:37;99221.13;;;-7.94;69.29
44198;BME280;30157;55.512;37.764;2023-03-01T04:03:03;99169.03;;;-8.23;69.23
44198;BME280;30157;55.512;37.764;2023-03-01T04:05:29;99206.06;;;-8.07;69.44
44198;BME280;30157;55.512;37.764;2023-03-01T04:07:56;99094.13;;;-8.71;69.38
44198;BME280;30157;55.512;37.764;2023-03-01T04:10:34;99163.44;;;-8.33;69.46
44198;BME280;30157;55.512;37.764;2023-03-01T04:13:02;99094.97;;;-8.70;69.57
44198;BME280;30157;55.512;37.764;2023-03-01T04:15:28;99216.69;;;-7.98;69.61
44198;BME280;30157;55.512;37.764;2023-03-01T04:17:54;99168.34;;;-8.21;69.74
44198;BME280;30157;55.512;37.764;2023-03-01T04:20:26;99216.78;;;-7.97;69.89
44198;BME280;30157;55.512;37.764;2023-03-01T04:23:04;99224.34;;;-7.97;69.48
44198;BME280;30157;55.512;37.764;2023-03-01T04:25:41;99219.28;;;-7.97;70.04
44198;BME280;30157;55.512;37.764;2023-03-01T04:28:08;99183.63;;;-8.18;70.02
44198;BME280;30157;55.512;37.764;2023-03-01T04:30:35;99205.25;;;-8.06;70.11
44198;BME280;30157;55.512;37.764;2023-03-01T04:33:03;99234.16;;;-7.86;70.07
44198;BME280;30157;55.512;37.764;2023-03-01T04:35:30;99240.00;;;-7.87;69.94
44198;BME280;30157;55.512;37.764;2023-03-01T04:37:56;99207.91;;;-8.05;69.95
44198;BME280;30157;55.512;37.764;2023-03-01T04:40:21;99241.91;;;-7.83;70.06
44198;BME280;30157;55.512;37.764;2023-03-01T04:42:47;99212.97;;;-7.90;69.95
44198;BME280;30157;55.512;37.764;2023-03-01T04:45:13;99214.78;;;-7.87;70.02
44198;BME280;30157;55.512;37.764;2023-03-01T04:47:42;99238.13;;;-7.47;69.65
44198;BME280;30157;55.512;37.764;2023-03-01T04:50:11;99209.81;;;-6.96;68.51
44198;BME280;30157;55.512;37.764;2023-03-01T04:52:37;99254.88;;;-5.75;66.52
44198;BME280;30157;55.512;37.764;2023-03-01T04:55:04;99199.53;;;-5.18;63.66
44198;BME280;30157;55.512;37.764;2023-03-01T04:57:30;99233.28;;;-4.45;62.39
44198;BME280;30157;55.512;37.764;2023-03-01T04:59:56;99248.66;;;-4.03;61.61
44198;BME280;30157;55.512;37.764;2023-03-01T05:02:21;99235.81;;;-3.68;60.36
44198;BME280;30157;55.512;37.764;2023-03-01T05:04:47;99223.78;;;-3.32;58.90
44198;BME280;30157;55.512;37.764;2023-03-01T05:07:12;99234.19;;;-3.05;57.76
44198;BME280;30157;55.512;37.764;2023-03-01T05:09:45;99232.22;;;-3.12;57.58
44198;BME280;30157;55.512;37.764;2023-03-01T05:12:12;99239.06;;;-3.30;58.85
44198;BME280;30157;55.512;37.764;2023-03-01T05:14:38;99201.28;;;-2.80;57.36
44198;BME280;30157;55.512;37.764;2023-03-01T05:17:04;99228.94;;;-2.65;55.99
44198;BME280;30157;55.512;37.764;2023-03-01T05:19:30;99243.28;;;-2.67;55.90
44198;BME280;30157;55.512;37.764;2023-03-01T05:21:59;99147.19;;;-2.78;55.48
44198;BME280;30157;55.512;37.764;2023-03-01T05:24:32;99218.09;;;-2.39;54.05
44198;BME280;30157;55.512;37.764;2023-03-01T05:26:58;99205.53;;;-2.35;54.29
44198;BME280;30157;55.512;37.764;2023-03-01T05:29:26;99238.38;;;-1.19;53.07
44198;BME280;30157;55.512;37.764;2023-03-01T05:31:57;99209.66;;;-0.60;51.37
44198;BME280;30157;55.512;37.764;2023-03-01T05:34:34;99248.63;;;-0.07;49.36
44198;BME280;30157;55.512;37.764;2023-03-01T05:37:01;99247.28;;;0.06;48.86
44198;BME280;30157;55.512;37.764;2023-03-01T05:39:27;99162.94;;;-0.59;48.32
44198;BME280;30157;55.512;37.764;2023-03-01T05:41:56;99253.59;;;-0.11;48.48
44198;BME280;30157;55.512;37.764;2023-03-01T05:44:23;99261.31;;;0.21;47.98
44198;BME280;30157;55.512;37.764;2023-03-01T05:46:49;99269.06;;;0.25;47.86
44198;BME280;30157;55.512;37.764;2023-03-01T05:49:15;99253.19;;;0.05;47.38
44198;BME280;30157;55.512;37.764;2023-03-01T05:51:43;99257.94;;;0.55;47.17
44198;BME280;30157;55.512;37.764;2023-03-01T05:54:09;99263.47;;;1.41;45.24
44198;BME280;30157;55.512;37.764;2023-03-01T05:56:36;99265.91;;;1.73;45.12
44198;BME280;30157;55.512;37.764;2023-03-01T05:59:03;99270.78;;;2.01;46.32
44198;BME280;30157;55.512;37.764;2023-03-01T06:01:31;99246.25;;;1.72;44.09
44198;BME280;30157;55.512;37.764;2023-03-01T06:03:57;99243.28;;;0.80;45.22
44198;BME280;30157;55.512;37.764;2023-03-01T06:06:23;99163.34;;;-0.74;46.43
44198;BME280;30157;55.512;37.764;2023-03-01T06:08:50;99273.94;;;-0.96;48.07
44198;BME280;30157;55.512;37.764;2023-03-01T06:11:15;99098.34;;;-2.71;49.56
44198;BME280;30157;55.512;37.764;2023-03-01T06:13:43;99284.94;;;-2.18;50.95
44198;BME280;30157;55.512;37.764;2023-03-01T06:16:08;99297.22;;;-2.52;51.98
44198;BME280;30157;55.512;37.764;2023-03-01T06:18:34;99290.53;;;-2.71;52.49
44198;BME280;30157;55.512;37.764;2023-03-01T06:21:00;99250.31;;;-3.04;52.89
44198;BME280;30157;55.512;37.764;2023-03-01T06:23:26;99261.69;;;-2.94;53.24
44198;BME280;30157;55.512;37.764;2023-03-01T06:25:52;99290.53;;;-2.71;53.44
44198;BME280;30157;55.512;37.764;2023-03-01T06:28:18;99269.84;;;-2.80;53.15
44198;BME280;30157;55.512;37.764;2023-03-01T06:30:44;99107.03;;;-3.95;53.37
44198;BME280;30157;55.512;37.764;2023-03-01T06:33:10;99297.13;;;-2.97;53.52
44198;BME280;30157;55.512;37.764;2023-03-01T06:35:35;99298.28;;;-3.10;54.11
44198;BME280;30157;55.512;37.764;2023-03-01T06:38:02;99272.88;;;-3.31;54.52
44198;BME280;30157;55.512;37.764;2023-03-01T06:40:30;99292.03;;;-3.38;54.68
44198;BME280;30157;55.512;37.764;2023-03-01T06:42:57;99312.22;;;-3.22;55.08
44198;BME280;30157;55.512;37.764;2023-03-01T06:45:24;99307.19;;;-3.20;54.96
44198;BME280;30157;55.512;37.764;2023-03-01T06:47:49;99287.97;;;-3.34;54.91
44198;BME280;30157;55.512;37.764;2023-03-01T06:50:16;99188.22;;;-3.74;55.14
44198;BME280;30157;55.512;37.764;2023-03-01T06:52:43;99212.00;;;-3.51;54.86
44198;BME280;30157;55.512;37.764;2023-03-01T06:55:11;99293.84;;;-2.95;54.56
44198;BME280;30157;55.512;37.764;2023-03-01T06:57:38;99291.22;;;-2.96;54.75
44198;BME280;30157;55.512;37.764;2023-03-01T07:00:05;99239.00;;;-2.46;53.21
44198;BME280;30157;55.512;37.764;2023-03-01T07:02:31;99319.81;;;-1.69;51.70
44198;BME280;30157;55.512;37.764;2023-03-01T07:04:57;99227.47;;;-1.66;51.03
44198;BME280;30157;55.512;37.764;2023-03-01T07:07:23;99195.41;;;-0.54;48.31
44198;BME280;30157;55.512;37.764;2023-03-01T07:09:49;99308.00;;;1.14;46.58
44198;BME280;30157;55.512;37.764;2023-03-01T07:12:15;99307.31;;;1.94;45.29
44198;BME280;30157;55.512;37.764;2023-03-01T07:14:41;99309.19;;;1.27;44.71
44198;BME280;30157;55.512;37.764;2023-03-01T07:17:07;99204.47;;;1.33;44.15
44198;BME280;30157;55.512;37.764;2023-03-01T07:19:33;99304.78;;;3.89;41.48
44198;BME280;30157;55.512;37.764;2023-03-01T07:21:58;99272.75;;;5.12;39.00
44198;BME280;30157;55.512;37.764;2023-03-01T07:24:24;99233.59;;;5.53;37.66
44198;BME280;30157;55.512;37.764;2023-03-01T07:26:50;99218.63;;;6.96;34.80
44198;BME280;30157;55.512;37.764;2023-03-01T07:29:17;99271.97;;;7.15;33.75
44198;BME280;30157;55.512;37.764;2023-03-01T07:31:43;99307.16;;;6.71;34.02
44198;BME280;30157;55.512;37.764;2023-03-01T07:34:09;99302.94;;;7.38;32.69
44198;BME280;30157;55.512;37.764;2023-03-01T07:36:36;99284.00;;;7.47;33.02
44198;BME280;30157;55.512;37.764;2023-03-01T07:39:02;99319.28;;;7.53;33.25
44198;BME280;30157;55.512;37.764;2023-03-01T07:41:29;99259.03;;;7.38;32.25
44198;BME280;30157;55.512;37.764;2023-03-01T07:43:55;99252.13;;;6.71;33.25
44198;BME280;30157;55.512;37.764;2023-03-01T07:46:21;99321.81;;;7.99;32.66
44198;BME280;30157;55.512;37.764;2023-03-01T07:48:47;99320.53;;;9.02;30.82
44198;BME280;30157;55.512;37.764;2023-03-01T07:51:13;99289.28;;;9.32;30.24
44198;BME280;30157;55.512;37.764;2023-03-01T07:53:39;99269.34;;;9.40;30.07
44198;BME280;30157;55.512;37.764;2023-03-01T07:56:12;99278.59;;;9.66;29.37
44198;BME280;30157;55.512;37.764;2023-03-01T07:58:42;99303.16;;;9.20;29.66
44198;BME280;30157;55.512;37.764;2023-03-01T08:01:14;99262.41;;;9.42;29.43
44198;BME280;30157;55.512;37.764;2023-03-01T08:03:40;99326.41;;;10.21;29.13
44198;BME280;30157;55.512;37.764;2023-03-01T08:06:08;99322.63;;;10.51;28.98
44198;BME280;30157;55.512;37.764;2023-03-01T08:08:34;99301.41;;;10.14;28.03
44198;BME280;30157;55.512;37.764;2023-03-01T08:11:05;99314.38;;;10.14;28.06
44198;BME280;30157;55.512;37.764;2023-03-01T08:13:32;99320.28;;;10.26;28.35
44198;BME280;30157;55.512;37.764;2023-03-01T08:16:12;99330.50;;;9.55;28.15
44198;BME280;30157;55.512;37.764;2023-03-01T08:18:38;99304.44;;;8.54;29.29
44198;BME280;30157;55.512;37.764;2023-03-01T08:21:24;99311.53;;;7.62;30.43
44198;BME280;30157;55.512;37.764;2023-03-01T08:23:50;99340.22;;;5.83;32.85
44198;BME280;30157;55.512;37.764;2023-03-01T08:26:18;99341.56;;;4.53;34.49
44198;BME280;30157;55.512;37.764;2023-03-01T08:28:46;99345.69;;;4.37;35.40
44198;BME280;30157;55.512;37.764;2023-03-01T08:31:26;99350.13;;;6.69;32.33
44198;BME280;30157;55.512;37.764;2023-03-01T08:33:55;99347.06;;;5.83;33.18
44198;BME280;30157;55.512;37.764;2023-03-01T08:36:26;99339.03;;;7.07;31.93
44198;BME280;30157;55.512;37.764;2023-03-01T08:38:52;99324.25;;;6.40;31.85
44198;BME280;30157;55.512;37.764;2023-03-01T08:41:18;99278.78;;;6.67;31.58
44198;BME280;30157;55.512;37.764;2023-03-01T08:43:43;99327.84;;;7.87;29.79
44198;BME280;30157;55.512;37.764;2023-03-01T08:46:09;99334.75;;;7.39;30.83
44198;BME280;30157;55.512;37.764;2023-03-01T08:48:35;99342.44;;;8.26;30.33
44198;BME280;30157;55.512;37.764;2023-03-01T08:51:15;99331.59;;;9.28;29.01
44198;BME280;30157;55.512;37.764;2023-03-01T08:53:41;99295.28;;;9.34;29.01
44198;BME280;30157;55.512;37.764;2023-03-01T08:56:08;99348.09;;;10.14;28.31
44198;BME280;30157;55.512;37.764;2023-03-01T08:58:34;99257.66;;;8.86;27.98
44198;BME280;30157;55.512;37.764;2023-03-01T09:01:08;99262.31;;;8.15;28.66
44198;BME280;30157;55.512;37.764;2023-03-01T09:03:34;99259.88;;;7.71;29.13
44198;BME280;30157;55.512;37.764;2023-03-01T09:06:01;99256.44;;;7.62;29.47
44198;BME280;30157;55.512;37.764;2023-03-01T09:08:27;99347.38;;;8.89;28.87
44198;BME280;30157;55.512;37.764;2023-03-01T09:10:53;99348.19;;;8.96;28.42
44198;BME280;30157;55.512;37.764;2023-03-01T09:13:19;99233.66;;;8.61;29.20
44198;BME280;30157;55.512;37.764;2023-03-01T09:15:45;99352.75;;;9.79;28.91
44198;BME280;30157;55.512;37.764;2023-03-01T09:18:10;99350.66;;;10.17;27.71
44198;BME280;30157;55.512;37.764;2023-03-01T09:20:36;99339.97;;;9.61;27.64
44198;BME280;30157;55.512;37.764;2023-03-01T09:23:01;99327.22;;;9.31;27.78
44198;BME280;30157;55.512;37.764;2023-03-01T09:25:27;99344.72;;;8.98;28.36
44198;BME280;30157;55.512;37.764;2023-03-01T09:27:54;99326.81;;;8.60;28.65
44198;BME280;30157;55.512;37.764;2023-03-01T09:30:22;99340.81;;;7.41;30.65
44198;BME280;30157;55.512;37.764;2023-03-01T09:32:48;99269.38;;;7.17;30.22
44198;BME280;30157;55.512;37.764;2023-03-01T09:35:13;99342.50;;;7.81;30.42
44198;BME280;30157;55.512;37.764;2023-03-01T09:37:39;99336.47;;;7.72;31.04
44198;BME280;30157;55.512;37.764;2023-03-01T09:40:14;99326.16;;;7.63;30.45
44198;BME280;30157;55.512;37.764;2023-03-01T09:42:48;99304.47;;;6.41;31.84
44198;BME280;30157;55.512;37.764;2023-03-01T09:45:29;99349.22;;;6.50;32.15
44198;BME280;30157;55.512;37.764;2023-03-01T09:47:59;99348.78;;;5.82;33.49
44198;BME280;30157;55.512;37.764;2023-03-01T09:50:28;99345.78;;;5.27;33.58
44198;BME280;30157;55.512;37.764;2023-03-01T09:53:01;99346.13;;;4.07;34.67
44198;BME280;30157;55.512;37.764;2023-03-01T09:55:37;99257.63;;;2.27;36.44
44198;BME280;30157;55.512;37.764;2023-03-01T10:00:45;99251.44;;;1.37;38.74
44198;BME280;30157;55.512;37.764;2023-03-01T10:06:01;99353.69;;;3.41;38.16
44198;BME280;30157;55.512;37.764;2023-03-01T10:08:40;99357.84;;;3.88;37.79
44198;BME280;30157;55.512;37.764;2023-03-01T10:11:31;99361.16;;;4.44;36.86
44198;BME280;30157;55.512;37.764;2023-03-01T10:14:09;99352.09;;;4.08;36.75
44198;BME280;30157;55.512;37.764;2023-03-01T10:16:58;99364.88;;;4.00;37.18
44198;BME280;30157;55.512;37.764;2023-03-01T10:19:37;99277.84;;;3.60;37.52
44198;BME280;30157;55.512;37.764;2023-03-01T10:22:24;99370.50;;;3.77;37.69
44198;BME280;30157;55.512;37.764;2023-03-01T10:24:54;99340.72;;;3.33;38.15
44198;BME280;30157;55.512;37.764;2023-03-01T10:27:41;99272.31;;;2.34;38.43
44198;BME280;30157;55.512;37.764;2023-03-01T10:30:26;99207.22;;;1.41;39.30
44198;BME280;30157;55.512;37.764;2023-03-01T10:32:56;99357.06;;;2.47;39.90
44198;BME280;30157;55.512;37.764;2023-03-01T10:35:28;99383.06;;;2.65;39.87
44198;BME280;30157;55.512;37.764;2023-03-01T10:37:58;99394.00;;;2.58;40.06
44198;BME280;30157;55.512;37.764;2023-03-01T10:40:28;99285.59;;;1.75;40.02
44198;BME280;30157;55.512;37.764;2023-03-01T10:42:59;99393.00;;;2.10;40.49
44198;BME280;30157;55.512;37.764;2023-03-01T10:48:18;99397.53;;;1.49;42.42
44198;BME280;30157;55.512;37.764;2023-03-01T10:50:46;99351.31;;;1.08;42.89
44198;BME280;30157;55.512;37.764;2023-03-01T10:53:35;99289.78;;;0.36;43.06
44198;BME280;30157;55.512;37.764;2023-03-01T10:56:12;99377.31;;;0.32;44.34
44198;BME280;30157;55.512;37.764;2023-03-01T10:58:57;99414.72;;;0.30;44.75
44198;BME280;30157;55.512;37.764;2023-03-01T11:06:41;99401.09;;;1.22;43.81
44198;BME280;30157;55.512;37.764;2023-03-01T11:09:23;99303.91;;;1.21;42.89
44198;BME280;30157;55.512;37.764;2023-03-01T11:11:54;99401.13;;;1.94;42.36
44198;BME280;30157;55.512;37.764;2023-03-01T11:14:21;99395.84;;;1.84;42.53
44198;BME280;30157;55.512;37.764;2023-03-01T11:16:58;99410.16;;;1.43;42.50
44198;BME280;30157;55.512;37.764;2023-03-01T11:19:24;99403.09;;;1.00;43.46
44198;BME280;30157;55.512;37.764;2023-03-01T11:22:21;99414.00;;;0.95;43.74
44198;BME280;30157;55.512;37.764;2023-03-01T11:24:51;99417.53;;;0.98;43.36
44198;BME280;30157;55.512;37.764;2023-03-01T11:27:26;99403.56;;;0.87;43.21
44198;BME280;30157;55.512;37.764;2023-03-01T11:32:42;99388.28;;;0.89;43.66
44198;BME280;30157;55.512;37.764;2023-03-01T11:35:22;99408.34;;;0.75;43.91
44198;BME280;30157;55.512;37.764;2023-03-01T11:41:00;99303.88;;;-0.36;45.16
44198;BME280;30157;55.512;37.764;2023-03-01T11:44:37;99397.94;;;-0.18;45.58
44198;BME280;30157;55.512;37.764;2023-03-01T11:52:16;99319.69;;;-0.74;44.97
44198;BME280;30157;55.512;37.764;2023-03-01T11:55:12;99409.22;;;0.45;44.47
44198;BME280;30157;55.512;37.764;2023-03-01T11:58:12;99413.53;;;1.42;44.02
44198;BME280;30157;55.512;37.764;2023-03-01T12:01:23;99423.38;;;1.96;42.64
44198;BME280;30157;55.512;37.764;2023-03-01T12:12:32;99418.97;;;1.54;41.79
44198;BME280;30157;55.512;37.764;2023-03-01T12:30:15;99406.41;;;1.30;41.41
44198;BME280;30157;55.512;37.764;2023-03-01T12:38:13;99305.41;;;0.47;41.98
44198;BME280;30157;55.512;37.764;2023-03-01T12:41:00;99414.19;;;1.01;41.67
44198;BME280;30157;55.512;37.764;2023-03-01T12:44:01;99426.78;;;0.64;42.13
44198;BME280;30157;55.512;37.764;2023-03-01T12:49:35;99398.03;;;0.12;42.87
44198;BME280;30157;55.512;37.764;2023-03-01T12:54:49;99319.38;;;-0.28;43.62
44198;BME280;30157;55.512;37.764;2023-03-01T13:02:45;99397.06;;;0.09;44.60
44198;BME280;30157;55.512;37.764;2023-03-01T13:07:55;99415.72;;;-0.21;45.65
44198;BME280;30157;55.512;37.764;2023-03-01T13:10:34;99386.75;;;-0.49;46.10
44198;BME280;30157;55.512;37.764;2023-03-01T13:13:23;99410.25;;;-0.32;46.69
44198;BME280;30157;55.512;37.764;2023-03-01T13:15:50;99415.31;;;-0.33;47.13
44198;BME280;30157;55.512;37.764;2023-03-01T13:20:52;99376.66;;;-0.97;47.14
44198;BME280;30157;55.512;37.764;2023-03-01T13:36:10;99424.63;;;-1.10;47.74
44198;BME280;30157;55.512;37.764;2023-03-01T13:49:36;99404.78;;;-1.65;48.42
44198;BME280;30157;55.512;37.764;2023-03-01T13:54:59;99361.34;;;-1.70;47.91
44198;BME280;30157;55.512;37.764;2023-03-01T13:57:37;99228.59;;;-2.52;47.73
44198;BME280;30157;55.512;37.764;2023-03-01T14:00:24;99409.00;;;-1.43;47.75
44198;BME280;30157;55.512;37.764;2023-03-01T14:05:35;99431.16;;;-1.63;47.87
44198;BME280;30157;55.512;37.764;2023-03-01T14:08:05;99287.19;;;-2.49;47.95
44198;BME280;30157;55.512;37.764;2023-03-01T14:16:28;99424.84;;;-1.73;48.96
44198;BME280;30157;55.512;37.764;2023-03-01T14:19:26;99428.31;;;-1.71;49.41
44198;BME280;30157;55.512;37.764;2023-03-01T14:25:33;99293.47;;;-2.83;49.37
44198;BME280;30157;55.512;37.764;2023-03-01T14:30:36;99371.06;;;-2.49;48.97
44198;BME280;30157;55.512;37.764;2023-03-01T14:33:05;99397.81;;;-2.36;48.88
44198;BME280;30157;55.512;37.764;2023-03-01T14:35:34;99416.03;;;-2.25;48.38
44198;BME280;30157;55.512;37.764;2023-03-01T14:38:00;99409.72;;;-2.35;48.36
44198;BME280;30157;55.512;37.764;2023-03-01T14:40:29;99383.50;;;-2.55;49.00
44198;BME280;30157;55.512;37.764;2023-03-01T14:42:57;99408.78;;;-2.37;48.76
44198;BME280;30157;55.512;37.764;2023-03-01T14:45:25;99381.09;;;-2.52;49.26
44198;BME280;30157;55.512;37.764;2023-03-01T14:47:53;99382.50;;;-2.59;48.74
44198;BME280;30157;55.512;37.764;2023-03-01T14:50:31;99284.47;;;-3.17;49.35
44198;BME280;30157;55.512;37.764;2023-03-01T14:53:04;99263.66;;;-3.29;49.42
44198;BME280;30157;55.512;37.764;2023-03-01T14:55:35;99294.63;;;-3.17;49.76
44198;BME280;30157;55.512;37.764;2023-03-01T14:58:04;99269.41;;;-3.33;49.97
44198;BME280;30157;55.512;37.764;2023-03-01T15:00:33;99396.38;;;-2.50;49.82
44198;BME280;30157;55.512;37.764;2023-03-01T15:03:14;99387.72;;;-2.56;50.00
44198;BME280;30157;55.512;37.764;2023-03-01T15:05:43;99331.38;;;-2.88;50.72
44198;BME280;30157;55.512;37.764;2023-03-01T15:08:19;99392.25;;;-2.48;50.57
44198;BME280;30157;55.512;37.764;2023-03-01T15:11:15;99399.94;;;-2.47;51.23